x

Grays Reef - 40 Nm Southeast Of Savannah, Ga (41008) Wave Buoy

3:50am - Sat 5th Sep 2015 All times are EDT. -4 hours from GMT.

  • Sig Wave height 0.7ft
  • Average Period 5s
  • Wind
    7mph
  • Sea Temp 84°f
  • Air Temp 82°f
  • Sea Pressure 1015.1mb
  • Grays Reef - 40 Nm Southeast Of Savannah, Ga
  • Grays Reef - 40 Nm Southeast Of Savannah, Ga

More Historic Weather Station data

Upgrade to MSW Pro to gain access to the past 30 days of data for over 8000 Wavebouys and Weather Stations around the globe.

Join Pro

Comparision Forecast

View Surf forecast
   
Sat 09/05 3:50am 0.7ft  -  5s 7
mph
1015.1mb 84f 82f
2:50am 0.7ft  -  5s  -  2 mph 1014.9mb 84f 82f
1:50am 0.7ft  -  6s 4
mph
1015.1mb 84f 82f
12:50am 0.7ft  -  5s 2 4 mph 1015.5mb 85f 83f
Fri 09/04 11:50pm 0.7ft  -  5s 7
mph
1015.9mb 85f 83f
10:50pm 0.7ft  -  5s  -  2 mph 1016mb 85f 83f
9:50pm 0.7ft  -  6s 4 7 mph 1015.7mb 85f 83f
8:50pm 1ft 8s 6s 4 7 mph 1014.9mb 85f 83f
7:50pm 1ft 8s 6s 4 7 mph 1014.2mb 85f 83f
6:50pm 1ft 13s 6s 2 4 mph 1014.6mb 86f 84f
5:50pm 0.7ft  -  6s 2 4 mph 1013.9mb 86f 84f
4:50pm 0.7ft  -  5s 2
mph
1013.8mb 86f 84f
3:50pm 0.7ft  -  5s 4 7 mph 1013.7mb 86f 84f
2:50pm 1ft 8s 4s 2 4 mph 1014.4mb 87f 84f
1:50pm 1ft 9s 4s 2 4 mph 1014.8mb 85f 84f
12:50pm 1ft 8s 4s 2 4 mph 1015.4mb 85f 83f
11:50am 1ft 3s 4s 4
mph
1015.7mb 84f 83f
10:50am 1.3ft 8s 4s 7
mph
1015.5mb 84f 82f
9:50am 1ft 7s 4s 11
mph
1015mb 84f 82f
8:50am 1ft 8s 4s 11
mph
1015mb 84f 82f
7:50am 1ft 8s 4s 11 13 mph 1014.5mb 84f 82f
6:50am 1ft 8s 4s 11 13 mph 1013.7mb 84f 81f
5:50am 1ft 8s 6s 9 11 mph 1013.2mb 84f 82f
4:50am 1ft 14s 6s 9
mph
1013.1mb 84f 83f
3:50am 1ft 8s 5s 2 4 mph 1013.1mb 84f 83f
2:50am 1ft 9s 5s  -  2 mph 1013.1mb 84f 82f
1:50am 1.3ft 8s 5s 2
mph
1013.4mb 84f 82f
12:50am 1.3ft 8s 4s 7
mph
1013.5mb 84f 82f
Thu 09/03 11:50pm 1.3ft 9s 4s 2
mph
1013.4mb 84f 82f
10:50pm 1.6ft 4s 4s 2 4 mph 1013.5mb 84f 81f
9:50pm 1.6ft 8s 4s 4 7 mph 1013.2mb 84f 82f
8:50pm 1.6ft 8s 4s 4 7 mph 1012.9mb 84f 81f
7:50pm 1.6ft 9s 4s 4
mph
1012.7mb 84f 81f
6:50pm 1.3ft 9s 4s 7 9 mph 1012.5mb 84f 81f
5:50pm 1.3ft 8s 4s 9 11 mph 1012.4mb 84f 82f
4:50pm 1.3ft 8s 4s 7 9 mph 1012.9mb 84f 81f
3:50pm 1.6ft 3s 3s 9 11 mph 1013.3mb 84f 81f
2:50pm 2ft 3s 4s 13
mph
1013.7mb 84f 81f
1:50pm 2ft 3s 4s 13 16 mph 1014mb 84f 80f
12:50pm 2ft 4s 4s 16 18 mph 1014.1mb 84f 80f
11:50am 2.5ft 4s 4s 13 16 mph 1014.1mb 84f 80f
10:50am 2ft 4s 4s 7
mph
1013.9mb 84f 79f
9:50am 2ft 4s 4s 11 13 mph 1014.2mb 84f 78f
8:50am 2ft 4s 4s 13
mph
1013.8mb 84f 79f
7:50am 2ft 4s 4s 11 13 mph 1013.4mb 84f 79f
6:50am 2ft 4s 4s 4 7 mph 1013.4mb 84f 80f
5:50am 2.5ft 4s 4s 9 11 mph 1013.1mb 84f 80f
4:50am 1.6ft 9s 4s 11 13 mph 1013.2mb 84f 79f
3:50am 1.6ft 9s 4s 9
mph
1013.5mb 84f 78f
2:50am 1.6ft 10s 4s 4 7 mph 1014.2mb 84f 78f
1:50am 2ft 9s 4s 11 13 mph 1014.8mb 84f 80f
12:50am 1.6ft 9s 4s 16 18 mph 1015.4mb 84f 80f
Wed 09/02 11:50pm 1.6ft 9s 5s 9 13 mph 1015.6mb 84f 82f
10:50pm 1.6ft 9s 5s 9 11 mph 1015.9mb 84f 82f
9:50pm 2ft 6s 6s 11
mph
1015.5mb 84f 82f
8:50pm 1.6ft 7s 6s 9 11 mph 1015.3mb 84f 81f
7:50pm 1.6ft 6s 6s 7
mph
1015.8mb 84f 81f
6:50pm 1.6ft 9s 6s 9
mph
1015.6mb 84f 80f
5:50pm 1.3ft 9s 6s 7 9 mph 1015.9mb 84f 80f
4:50pm 1.3ft 8s 6s 9
mph
1016.2mb 84f 81f
3:50pm 1.3ft 8s 6s 7 9 mph 1017.3mb 84f 80f
2:50pm 1.3ft 8s 5s 9 11 mph 1018.1mb 83f 76f
1:50pm 1.6ft 10s 4s 13 20 mph 1019mb 84f 76f
12:50pm 1.6ft 10s 5s 7 13 mph 1018.8mb 84f 82f
11:50am 1.6ft 7s 5s 7 9 mph 1018.9mb 84f 82f
10:50am 2ft 6s 5s 9 11 mph 1018.8mb 84f 83f
9:50am 2ft 7s 4s 9 11 mph 1018.9mb 84f 84f
8:50am 2ft 6s 5s 9 11 mph 1019.1mb 84f 84f
7:50am 2ft 7s 5s 7 9 mph 1018.8mb 84f 83f
6:50am 2ft 9s 5s 7 9 mph 1018.3mb 84f 83f
5:50am 1.6ft 9s 5s 9 11 mph 1017.7mb 84f 83f
4:50am 1.6ft 8s 5s 9 11 mph 1017.5mb 84f 83f
3:50am 1.6ft 10s 5s 7 9 mph 1017.6mb 84f 83f
2:50am 1.6ft 8s 5s 9
mph
1017.9mb 84f 82f
1:50am 1.6ft 10s 6s 9
mph
1018.4mb 84f 82f
12:50am 2ft 8s 5s 7 9 mph 1018.9mb 84f 82f
Tue 09/01 11:50pm 2ft 7s 5s 7 9 mph 1019mb 84f 82f
10:50pm 2ft 8s 5s 4 7 mph 1019.1mb 84f 82f
9:50pm 2.5ft 7s 5s 4 7 mph 1018.7mb 84f 82f
8:50pm 2ft 8s 5s 7 9 mph 1018.2mb 84f 82f
7:50pm 2ft 8s 5s 7 9 mph 1017.9mb 84f 81f
6:50pm 2ft 9s 5s 9 11 mph 1018mb 84f 81f
5:50pm 2ft 8s 5s 9
mph
1018.1mb 84f 81f
4:50pm 2ft 9s 5s 11
mph
1018.2mb 84f 80f
3:50pm 1.6ft 8s 5s 9
mph
1018.8mb 84f 79f
2:50pm 1.6ft 10s 5s 7 9 mph 1019mb 84f 79f
1:50pm 2ft 10s 4s 7 9 mph 1019.4mb 84f 79f
12:50pm 2ft 10s 5s 13 16 mph 1019.1mb 84f 79f
11:50am 2ft 10s 6s 2 4 mph 1019.7mb 84f 79f
10:50am 1.6ft 8s 6s 4 9 mph 1019.6mb 84f 81f
9:50am 2.5ft 8s 5s 7 9 mph 1019.2mb 84f 81f
8:50am 2.5ft 8s 6s 9 11 mph 1019mb 84f 80f